Time;durP1;ratioP1;P1;durP2;ratioP2;P2;SDS_P1;SDS_P2;PMS_P1;PMS_P2;Temp;Humidity;BMP_temperature;BMP_pressure;BME280_temperature;BME280_humidity;BME280_pressure;Samples;Min_cycle;Max_cycle;Signal;HPM_P1;HPM_P2
2021/12/04 00:00:23;;;;;;;29.70;22.73;;;;;;;-146.64;100.00;39988.66;5084957;28;20032;-75
2021/12/04 00:02:50;;;;;;;37.65;24.35;;;;;;;-146.64;100.00;39992.75;5052221;28;20036;-76
2021/12/04 00:05:16;;;;;;;38.63;24.40;;;;;;;-146.64;100.00;39988.66;5059915;28;20111;-77
2021/12/04 00:07:42;;;;;;;40.65;25.10;;;;;;;-146.64;100.00;39986.63;5072116;28;20024;-76
2021/12/04 00:10:08;;;;;;;41.80;25.88;;;;;;;-146.64;100.00;39994.81;5054155;28;20357;-76
2021/12/04 00:12:34;;;;;;;39.95;25.88;;;;;;;-146.64;100.00;39976.38;5051885;28;20212;-76
2021/12/04 00:15:01;;;;;;;41.22;26.90;;;;;;;-146.64;100.00;39941.59;5049010;28;20035;-78
2021/12/04 00:17:27;;;;;;;26.08;19.17;;;;;;;-146.64;100.00;40021.41;5085310;28;20044;-76
2021/12/04 00:19:52;;;;;;;39.70;26.13;;;;;;;-146.64;100.00;39982.53;5043196;28;20029;-76
2021/12/04 00:22:18;;;;;;;40.75;25.83;;;;;;;-146.64;100.00;39972.28;5064751;28;20365;-76
2021/12/04 00:24:44;;;;;;;43.15;27.98;;;;;;;-146.64;100.00;39992.75;5046149;28;20053;-76
2021/12/04 00:27:09;;;;;;;57.15;32.60;;;;;;;-146.64;100.00;39976.38;5040862;28;20037;-77
2021/12/04 00:29:35;;;;;;;44.20;29.08;;;;;;;-146.64;100.00;39996.84;5070487;28;20107;-76
2021/12/04 00:34:49;;;;;;;49.92;27.50;;;;;;;-146.64;100.00;39992.75;5066472;28;20289;-76
2021/12/04 00:50:56;;;;;;;34.95;23.48;;;;;;;-146.64;100.00;40021.41;5064320;28;20089;-76
2021/12/04 00:53:22;;;;;;;42.15;25.52;;;;;;;-146.64;100.00;40007.09;5065855;28;20543;-77
2021/12/04 00:55:47;;;;;;;38.45;25.55;;;;;;;-146.64;100.00;40027.56;5054591;28;20055;-76
2021/12/04 00:58:12;;;;;;;38.97;24.70;;;;;;;-146.64;100.00;39966.16;5060542;28;20036;-76
2021/12/04 01:00:39;;;;;;;36.85;23.67;;;;;;;-146.64;100.00;40025.50;5056139;28;20472;-76
2021/12/04 01:03:04;;;;;;;40.08;24.20;;;;;;;-146.64;100.00;40000.94;5057788;28;20021;-76
2021/12/04 01:05:30;;;;;;;40.30;25.10;;;;;;;-146.64;100.00;39994.81;5075750;28;20098;-77
2021/12/04 01:07:55;;;;;;;39.25;23.75;;;;;;;-146.64;100.00;40005.03;5057736;28;20488;-76
2021/12/04 01:10:20;;;;;;;43.42;24.08;;;;;;;-146.64;100.00;40009.13;5072586;28;20068;-76
2021/12/04 01:12:49;;;;;;;43.42;24.05;;;;;;;-146.64;100.00;40037.78;5080705;28;20036;-76
2021/12/04 01:15:14;;;;;;;44.67;24.80;;;;;;;-146.64;100.00;40013.22;5068682;28;20491;-76
2021/12/04 01:17:40;;;;;;;47.47;25.17;;;;;;;-146.64;100.00;40037.78;5088726;28;20036;-77
2021/12/04 01:20:05;;;;;;;39.83;23.40;;;;;;;-146.64;100.00;40035.75;5070236;28;20061;-76
2021/12/04 01:22:33;;;;;;;49.03;24.10;;;;;;;-146.64;100.00;40011.19;5052378;28;20523;-77
2021/12/04 01:24:59;;;;;;;44.05;24.85;;;;;;;-146.64;100.00;40000.94;5066034;28;20162;-77
2021/12/04 01:27:25;;;;;;;46.70;24.13;;;;;;;-146.64;100.00;39996.84;5073920;28;20114;-76
2021/12/04 01:29:51;;;;;;;49.80;23.73;;;;;;;-146.64;100.00;40017.31;5079872;28;20185;-77
2021/12/04 01:32:17;;;;;;;36.42;18.77;;;;;;;-146.64;100.00;39972.28;5081965;28;20021;-77
2021/12/04 01:34:43;;;;;;;46.47;24.45;;;;;;;-146.64;100.00;39994.81;5067813;28;20490;-76
2021/12/04 01:37:08;;;;;;;48.45;24.55;;;;;;;-146.64;100.00;40017.31;5054278;28;20017;-77
2021/12/04 01:39:33;;;;;;;44.60;23.45;;;;;;;-146.64;100.00;39982.53;5048126;28;20511;-77
2021/12/04 01:41:59;;;;;;;42.40;24.25;;;;;;;-146.64;100.00;39972.28;5048346;28;20027;-76
2021/12/04 01:44:25;;;;;;;51.72;26.05;;;;;;;-146.64;100.00;40000.94;5064959;28;20021;-77
2021/12/04 01:46:55;;;;;;;44.25;26.67;;;;;;;-146.64;100.00;40009.13;5060061;28;20341;-77
2021/12/04 01:49:22;;;;;;;42.28;26.42;;;;;;;-146.64;100.00;40041.88;5066107;28;20028;-77
2021/12/04 01:51:47;;;;;;;48.22;26.33;;;;;;;-146.64;100.00;39988.66;5065488;28;20070;-76
2021/12/04 01:54:13;;;;;;;49.22;27.17;;;;;;;-146.64;100.00;39957.97;5058997;28;20033;-77
2021/12/04 01:56:38;;;;;;;54.83;28.10;;;;;;;-146.64;100.00;39933.41;5062175;28;20349;-76
2021/12/04 01:59:04;;;;;;;53.67;29.85;;;;;;;-146.64;100.00;39996.84;5071898;28;20032;-78
2021/12/04 02:01:32;;;;;;;54.20;28.65;;;;;;;-146.64;100.00;40005.03;5069309;28;20457;-74
2021/12/04 02:03:57;;;;;;;55.67;30.88;;;;;;;-146.64;100.00;39955.91;5063986;28;20118;-77
2021/12/04 02:06:23;;;;;;;57.67;30.58;;;;;;;-146.64;100.00;40037.78;5072243;28;20369;-75
2021/12/04 02:08:49;;;;;;;60.40;29.98;;;;;;;-146.64;100.00;40025.50;5057666;28;20045;-76
2021/12/04 02:11:14;;;;;;;60.78;32.22;;;;;;;-146.64;100.00;39990.72;5060560;28;20017;-76
2021/12/04 02:13:39;;;;;;;62.53;31.67;;;;;;;-146.64;100.00;40029.59;5057642;28;20037;-75
2021/12/04 02:16:19;;;;;;;54.58;29.45;;;;;;;-146.64;100.00;39955.91;5048932;28;20184;-75
2021/12/04 02:18:45;;;;;;;54.30;30.52;;;;;;;-146.64;100.00;40037.78;5034215;28;20036;-76
2021/12/04 02:21:11;;;;;;;52.95;31.95;;;;;;;-146.64;100.00;40019.38;5070005;28;20039;-75
2021/12/04 02:23:36;;;;;;;60.83;31.67;;;;;;;-146.64;100.00;40033.69;5074999;28;20044;-75
2021/12/04 02:26:02;;;;;;;63.88;30.58;;;;;;;-146.64;100.00;40033.69;5063774;28;20025;-76
2021/12/04 02:28:27;;;;;;;59.10;31.60;;;;;;;-146.64;100.00;40045.97;5058137;28;20083;-75
2021/12/04 02:30:52;;;;;;;54.35;29.67;;;;;;;-146.64;100.00;40062.34;5070342;28;20074;-75
2021/12/04 02:33:18;;;;;;;60.00;31.75;;;;;;;-146.64;100.00;40054.16;5053313;28;20478;-76
2021/12/04 02:35:52;;;;;;;58.15;31.83;;;;;;;-146.64;100.00;40082.81;5068070;28;20101;-75
2021/12/04 02:38:22;;;;;;;59.42;32.78;;;;;;;-146.64;100.00;40029.59;5057263;28;20032;-76
2021/12/04 02:40:48;;;;;;;58.63;32.63;;;;;;;-146.64;100.00;40025.50;5078928;28;20282;-75
2021/12/04 02:43:14;;;;;;;61.58;33.70;;;;;;;-146.64;100.00;40066.44;5067334;28;20040;-75
2021/12/04 02:45:42;;;;;;;65.93;33.97;;;;;;;-146.64;100.00;40045.97;5054560;28;20029;-76
2021/12/04 02:48:08;;;;;;;61.65;33.05;;;;;;;-146.64;100.00;40066.44;5078239;28;20390;-75
2021/12/04 02:50:33;;;;;;;70.55;35.13;;;;;;;-146.64;100.00;40091.00;5062780;28;20251;-75
2021/12/04 02:53:00;;;;;;;65.18;34.45;;;;;;;-146.64;100.00;40045.97;5062399;28;20035;-76
2021/12/04 02:55:25;;;;;;;59.63;32.60;;;;;;;-146.64;100.00;40056.22;5075011;28;20069;-76
2021/12/04 02:57:51;;;;;;;63.85;34.10;;;;;;;-146.64;100.00;40050.06;5065188;28;20044;-75
2021/12/04 03:00:20;;;;;;;72.53;34.50;;;;;;;-146.64;100.00;40041.88;5068125;28;20631;-75
2021/12/04 03:02:46;;;;;;;62.33;33.28;;;;;;;-146.64;100.00;40050.06;5069774;28;20104;-76
2021/12/04 03:05:13;;;;;;;67.10;34.70;;;;;;;-146.64;100.00;40043.94;5048989;28;20044;-75
2021/12/04 03:07:38;;;;;;;;;;;;;;;-146.64;100.00;40035.75;5045244;28;20017;-75
2021/12/04 03:10:06;;;;;;;65.22;32.28;;;;;;;-146.64;100.00;40025.50;5059420;28;19912;-75
2021/12/04 03:12:32;;;;;;;66.20;32.65;;;;;;;-146.64;100.00;40058.25;5049127;28;20021;-75
2021/12/04 03:14:57;;;;;;;59.30;31.42;;;;;;;-146.64;100.00;40041.88;5062410;28;20021;-76
2021/12/04 03:17:25;;;;;;;70.63;34.70;;;;;;;-146.64;100.00;40070.53;5067418;28;20039;-76
2021/12/04 03:19:52;;;;;;;70.10;34.35;;;;;;;-146.64;100.00;40033.69;5069567;28;20372;-75
2021/12/04 03:22:19;;;;;;;76.07;36.95;;;;;;;-146.64;100.00;40033.69;5036946;28;20037;-75
2021/12/04 03:24:45;;;;;;;74.20;34.85;;;;;;;-146.64;100.00;40052.13;5057273;28;20060;-75
2021/12/04 03:27:13;;;;;;;75.10;35.58;;;;;;;-146.64;100.00;40062.34;5065314;28;20463;-74
2021/12/04 03:29:42;;;;;;;72.72;35.00;;;;;;;-146.64;100.00;40068.50;5082971;28;20036;-74
2021/12/04 03:32:21;;;;;;;66.00;34.38;;;;;;;-146.64;100.00;40058.25;5083251;28;20020;-74
2021/12/04 03:42:47;;;;;;;73.93;34.85;;;;;;;-146.64;100.00;40062.34;5074775;28;20029;-75
2021/12/04 03:45:13;;;;;;;74.60;35.80;;;;;;;-146.64;100.00;40070.53;5061191;28;20059;-74
2021/12/04 03:47:42;;;;;;;81.85;34.50;;;;;;;-146.64;100.00;40050.06;5079328;28;20025;-74
2021/12/04 03:50:08;;;;;;;73.10;35.60;;;;;;;-146.64;100.00;40045.97;5043950;28;20021;-75
2021/12/04 03:52:34;;;;;;;64.95;33.40;;;;;;;-146.64;100.00;40050.06;5054641;28;20383;-75
2021/12/04 03:54:59;;;;;;;70.68;32.83;;;;;;;-146.64;100.00;40060.31;5062563;28;20094;-74
2021/12/04 03:57:24;;;;;;;66.63;31.90;;;;;;;-146.64;100.00;40050.06;5069032;28;20086;-74
2021/12/04 03:59:50;;;;;;;63.75;33.13;;;;;;;-146.64;100.00;40050.06;5065598;28;20028;-75
2021/12/04 04:02:17;;;;;;;61.88;32.75;;;;;;;-146.64;100.00;40105.34;5055322;28;20025;-75
2021/12/04 04:04:43;;;;;;;55.42;27.60;;;;;;;-146.64;100.00;40056.22;5054116;28;20039;-75
2021/12/04 04:07:09;;;;;;;52.05;26.77;;;;;;;-146.64;100.00;40062.34;5057026;28;20032;-75
2021/12/04 04:09:36;;;;;;;59.78;26.85;;;;;;;-146.64;100.00;40068.50;5070471;28;20113;-75
2021/12/04 04:12:03;;;;;;;54.30;26.48;;;;;;;-146.64;100.00;39986.63;5067552;28;20024;-75
2021/12/04 04:14:28;;;;;;;58.58;25.55;;;;;;;-146.64;100.00;39943.63;5082311;28;20534;-75
2021/12/04 04:16:55;;;;;;;58.20;25.40;;;;;;;-146.64;100.00;40027.56;5063010;28;20033;-75
2021/12/04 04:19:22;;;;;;;54.17;24.88;;;;;;;-146.64;100.00;40074.63;5051028;28;20024;-75
2021/12/04 04:21:48;;;;;;;;;;;;;;;-146.64;100.00;40033.69;5067534;28;20115;-76
2021/12/04 04:24:15;;;;;;;55.53;23.05;;;;;;;-146.64;100.00;40050.06;5045653;28;20015;-75
2021/12/04 04:26:42;;;;;;;63.60;24.85;;;;;;;-146.64;100.00;40045.97;5059073;28;20634;-75
2021/12/04 04:29:09;;;;;;;62.75;24.77;;;;;;;-146.64;100.00;39988.66;5054291;28;20037;-75
2021/12/04 04:31:36;;;;;;;62.10;25.23;;;;;;;-146.64;100.00;40041.88;5065738;28;20033;-76
2021/12/04 04:34:06;;;;;;;63.85;26.20;;;;;;;-146.64;100.00;39896.56;5074652;28;20023;-74
2021/12/04 04:58:22;;;;;;;54.45;23.23;;;;;;;-146.64;100.00;40050.06;5062480;28;20047;-74
2021/12/04 05:11:38;;;;;;;63.55;25.45;;;;;;;-146.64;100.00;40050.06;5071503;28;20392;-75
2021/12/04 05:14:06;;;;;;;56.92;25.17;;;;;;;-146.64;100.00;40052.13;5069553;28;20423;-75
2021/12/04 05:16:49;;;;;;;67.72;27.08;;;;;;;-146.64;100.00;40060.31;5050164;28;20075;-75
2021/12/04 05:19:28;;;;;;;68.10;28.13;;;;;;;-146.64;100.00;40072.59;5068064;28;20062;-75
2021/12/04 05:21:54;;;;;;;61.92;26.70;;;;;;;-146.64;100.00;40062.34;5086440;28;20115;-75
2021/12/04 05:24:21;;;;;;;63.47;26.10;;;;;;;-146.64;100.00;40076.69;5046772;28;20174;-75
2021/12/04 05:26:46;;;;;;;;;;;;;;;-146.64;100.00;40080.78;5063298;28;20075;-75
2021/12/04 05:29:12;;;;;;;70.05;26.30;;;;;;;-146.64;100.00;40070.53;5054079;28;19924;-75
2021/12/04 05:31:37;;;;;;;74.95;27.15;;;;;;;-146.64;100.00;40101.25;5085780;28;20030;-75
2021/12/04 05:34:02;;;;;;;68.00;28.63;;;;;;;-146.64;100.00;40058.25;5045852;28;20048;-75
2021/12/04 05:36:28;;;;;;;81.18;28.58;;;;;;;-146.64;100.00;40095.09;5049499;28;20173;-75
2021/12/04 05:38:54;;;;;;;71.38;27.48;;;;;;;-146.64;100.00;40082.81;5053181;28;20040;-75
2021/12/04 05:41:19;;;;;;;80.45;30.27;;;;;;;-146.64;100.00;40086.91;5056223;28;20476;-75
2021/12/04 05:43:45;;;;;;;79.32;28.27;;;;;;;-146.64;100.00;40097.16;5064713;28;20028;-75
2021/12/04 05:48:49;;;;;;;84.47;29.30;;;;;;;-146.64;100.00;40103.28;5073934;28;20086;-75
2021/12/04 05:54:18;;;;;;;72.57;26.70;;;;;;;-146.64;100.00;40127.84;5066390;28;20118;-75
2021/12/04 05:56:45;;;;;;;68.22;27.17;;;;;;;-146.64;100.00;40082.81;5060643;28;20036;-75
2021/12/04 05:59:11;;;;;;;78.47;28.85;;;;;;;-146.64;100.00;40064.41;5070474;28;20039;-75
2021/12/04 06:01:36;;;;;;;69.25;28.25;;;;;;;-146.64;100.00;40043.94;5052572;28;20457;-76
2021/12/04 06:04:02;;;;;;;58.83;24.65;;;;;;;-146.64;100.00;40103.28;5067837;28;20043;-75
2021/12/04 06:06:28;;;;;;;75.07;26.50;;;;;;;-146.64;100.00;40084.88;5069237;28;20039;-75
2021/12/04 06:08:54;;;;;;;70.47;25.50;;;;;;;-146.64;100.00;40095.09;5068545;28;20024;-75
2021/12/04 06:11:20;;;;;;;69.57;26.70;;;;;;;-146.64;100.00;40091.00;5042294;28;20032;-75
2021/12/04 06:13:45;;;;;;;66.53;25.38;;;;;;;-146.64;100.00;40107.38;5064775;28;20132;-75
2021/12/04 06:16:11;;;;;;;68.45;27.38;;;;;;;-146.64;100.00;40113.53;5050101;28;20052;-77
2021/12/04 06:18:37;;;;;;;86.90;27.85;;;;;;;-146.64;100.00;40091.00;5055240;28;21495;-75
2021/12/04 06:23:46;;;;;;;86.13;28.00;;;;;;;-146.64;100.00;40082.81;5057513;28;20103;-74
2021/12/04 06:26:13;;;;;;;87.70;27.08;;;;;;;-146.64;100.00;40103.28;5057594;28;20487;-75
2021/12/04 06:28:41;;;;;;;81.82;26.70;;;;;;;-146.64;100.00;40115.56;5066069;28;20024;-75
2021/12/04 06:31:08;;;;;;;90.90;30.40;;;;;;;-146.64;100.00;40127.84;5046862;28;20017;-75
2021/12/04 06:33:34;;;;;;;89.85;28.13;;;;;;;-146.64;100.00;40093.06;5080374;28;20369;-75
2021/12/04 06:36:00;;;;;;;77.95;28.30;;;;;;;-146.64;100.00;40072.59;5062048;28;20059;-75
2021/12/04 06:38:26;;;;;;;82.35;27.95;;;;;;;-146.64;100.00;40099.19;5056528;28;20024;-75
2021/12/04 06:40:51;;;;;;;98.88;30.02;;;;;;;-146.64;100.00;40113.53;5055113;28;20429;-75
2021/12/04 06:43:18;;;;;;;87.78;30.85;;;;;;;-146.64;100.00;40115.56;5059802;28;20443;-75
2021/12/04 06:45:48;;;;;;;102.83;29.80;;;;;;;-146.64;100.00;40138.09;5047558;28;20029;-75
2021/12/04 06:48:22;;;;;;;96.32;29.95;;;;;;;-146.64;100.00;40111.47;5069662;28;20024;-74
2021/12/04 06:50:52;;;;;;;92.22;30.35;;;;;;;-146.64;100.00;40136.03;5061008;28;20039;-75
2021/12/04 06:56:03;;;;;;;93.53;31.40;;;;;;;-146.64;100.00;40148.31;5070547;28;20103;-74
2021/12/04 06:58:29;;;;;;;93.00;31.42;;;;;;;-146.64;100.00;40129.91;5066258;28;20128;-75
2021/12/04 07:00:55;;;;;;;96.47;28.98;;;;;;;-146.64;100.00;40144.22;5060494;28;20025;-75
2021/12/04 07:03:23;;;;;;;97.07;31.45;;;;;;;-146.64;100.00;40113.53;5058902;28;20186;-75
2021/12/04 07:05:48;;;;;;;124.65;32.33;;;;;;;-146.64;100.00;40127.84;5074590;28;20051;-74
2021/12/04 07:08:14;;;;;;;126.00;29.85;;;;;;;-146.64;100.00;40142.19;5055446;28;20017;-75
2021/12/04 07:10:40;;;;;;;108.90;31.88;;;;;;;-146.64;100.00;40131.94;5060133;28;20119;-76
2021/12/04 07:13:06;;;;;;;110.97;30.58;;;;;;;-146.64;100.00;40117.63;5076504;28;20044;-75
2021/12/04 07:15:32;;;;;;;148.48;31.05;;;;;;;-146.64;100.00;40134.00;5066011;28;20451;-76
2021/12/04 07:17:59;;;;;;;144.15;31.65;;;;;;;-146.64;100.00;40168.81;5081421;28;20498;-76
2021/12/04 07:20:26;;;;;;;134.40;32.00;;;;;;;-146.64;100.00;40181.09;5061210;28;20114;-75
2021/12/04 07:22:52;;;;;;;133.20;30.95;;;;;;;-146.64;100.00;40140.13;5054700;28;20048;-76
2021/12/04 07:25:18;;;;;;;107.22;29.40;;;;;;;-146.64;100.00;40148.31;5055237;28;20588;-76
2021/12/04 07:27:45;;;;;;;98.80;30.02;;;;;;;-146.64;100.00;40181.09;5054769;28;20036;-76
2021/12/04 07:30:11;;;;;;;;;;;;;;;-146.64;100.00;40127.84;5041780;28;20024;-75
2021/12/04 07:32:37;;;;;;;89.47;30.80;;;;;;;-146.64;100.00;40142.19;5065471;28;20289;-74
2021/12/04 07:35:06;;;;;;;91.95;31.52;;;;;;;-146.64;100.00;40125.81;5052992;28;20039;-75
2021/12/04 07:37:31;;;;;;;108.60;32.03;;;;;;;-146.64;100.00;40164.72;5056257;28;20032;-75
2021/12/04 07:39:57;;;;;;;104.95;33.35;;;;;;;-146.64;100.00;40140.13;5062460;28;20384;-76
2021/12/04 07:42:22;;;;;;;106.47;33.08;;;;;;;-146.64;100.00;40181.09;5054961;28;20025;-74
2021/12/04 07:44:47;;;;;;;105.82;34.35;;;;;;;-146.64;100.00;40160.63;5055515;28;20025;-74
2021/12/04 07:47:14;;;;;;;119.80;33.42;;;;;;;-146.64;100.00;40154.47;5072890;28;20365;-74
2021/12/04 07:49:40;;;;;;;111.65;32.78;;;;;;;-146.64;100.00;40156.50;5061063;28;20036;-74
2021/12/04 07:52:06;;;;;;;113.22;33.28;;;;;;;-146.64;100.00;40162.66;5063066;28;20021;-74
2021/12/04 07:54:32;;;;;;;93.03;31.42;;;;;;;-146.64;100.00;40160.63;5056788;28;20025;-74
2021/12/04 07:56:57;;;;;;;135.20;35.25;;;;;;;-146.64;100.00;40148.31;5071884;28;20483;-74
2021/12/04 07:59:24;;;;;;;133.23;33.67;;;;;;;-146.64;100.00;40158.56;5054440;28;20040;-74
2021/12/04 08:01:49;;;;;;;123.27;33.90;;;;;;;-146.64;100.00;40138.09;5069939;28;20461;-75
2021/12/04 08:04:15;;;;;;;130.15;31.63;;;;;;;-146.64;100.00;40142.19;5066750;28;20117;-77
2021/12/04 08:06:40;;;;;;;97.70;29.52;;;;;;;-146.64;100.00;40119.66;5059401;28;20119;-76
2021/12/04 08:09:05;;;;;;;134.38;31.35;;;;;;;-146.64;100.00;40052.13;5054612;28;20024;-74
2021/12/04 08:11:31;;;;;;;91.78;29.17;;;;;;;-146.64;100.00;40164.72;5042963;28;20032;-76
2021/12/04 08:13:56;;;;;;;88.32;30.05;;;;;;;-146.64;100.00;40136.03;5062155;28;20060;-75
2021/12/04 08:16:24;;;;;;;89.57;29.00;;;;;;;-146.64;100.00;40131.94;5055589;28;20025;-75
2021/12/04 08:18:54;;;;;;;82.80;27.67;;;;;;;-146.64;100.00;40115.56;5064467;28;20040;-75
2021/12/04 08:21:21;;;;;;;78.55;27.85;;;;;;;-146.64;100.00;40103.28;5052952;28;20025;-75
2021/12/04 08:23:47;;;;;;;71.55;28.83;;;;;;;-146.64;100.00;40121.72;5048246;28;20087;-75
2021/12/04 08:26:12;;;;;;;68.25;25.77;;;;;;;-146.64;100.00;40105.34;5068824;28;20064;-75
2021/12/04 08:28:38;;;;;;;72.85;27.40;;;;;;;-146.64;100.00;40086.91;5051853;28;20045;-75
2021/12/04 08:31:03;;;;;;;68.88;26.42;;;;;;;-146.64;100.00;40103.28;5056013;28;20032;-75
2021/12/04 08:33:29;;;;;;;72.00;29.58;;;;;;;-146.64;100.00;40074.63;5045355;28;20032;-75
2021/12/04 08:35:54;;;;;;;76.90;29.08;;;;;;;-146.64;100.00;40086.91;5053528;28;20067;-75
2021/12/04 08:38:20;;;;;;;78.97;28.05;;;;;;;-146.64;100.00;39984.56;5061834;28;20059;-75
2021/12/04 08:40:45;;;;;;;78.97;27.35;;;;;;;-146.64;100.00;40082.81;5061591;28;20029;-75
2021/12/04 08:43:11;;;;;;;80.82;28.83;;;;;;;-146.64;100.00;40099.19;5084320;28;20032;-75
2021/12/04 08:45:38;;;;;;;76.93;27.55;;;;;;;-146.64;100.00;40066.44;5068282;28;20031;-74
2021/12/04 08:48:04;;;;;;;67.22;25.95;;;;;;;-146.64;100.00;40099.19;5061503;28;20044;-75
2021/12/04 08:50:31;;;;;;;83.03;27.87;;;;;;;-146.64;100.00;40082.81;5065235;28;20017;-75
2021/12/04 08:52:57;;;;;;;81.80;27.80;;;;;;;-146.64;100.00;40076.69;5046982;28;20032;-75
2021/12/04 08:55:24;;;;;;;78.07;28.05;;;;;;;-146.64;100.00;40093.06;5049023;28;20032;-75
2021/12/04 08:57:49;;;;;;;80.03;27.50;;;;;;;-146.64;100.00;40050.06;5053557;28;20089;-74
2021/12/04 09:00:26;;;;;;;86.18;26.50;;;;;;;-146.64;100.00;40082.81;5033998;28;20186;-76
2021/12/04 09:02:52;;;;;;;93.80;29.13;;;;;;;-146.64;100.00;39960.00;5064962;28;20512;-75
2021/12/04 09:05:20;;;;;;;83.75;27.83;;;;;;;-146.64;100.00;40058.25;5061237;28;20029;-75
2021/12/04 09:07:45;;;;;;;120.20;29.05;;;;;;;-146.64;100.00;40072.59;5051573;28;20020;-75
2021/12/04 09:10:12;;;;;;;88.70;28.23;;;;;;;-146.64;100.00;40070.53;5055854;28;20036;-76
2021/12/04 09:12:38;;;;;;;84.13;27.45;;;;;;;-146.64;100.00;40084.88;5049438;28;20031;-75
2021/12/04 09:15:06;;;;;;;106.90;30.27;;;;;;;-146.64;100.00;40045.97;5065961;28;20029;-75
2021/12/04 09:17:32;;;;;;;96.20;30.20;;;;;;;-146.64;100.00;40082.81;5061801;28;20756;-75
2021/12/04 09:19:57;;;;;;;97.70;29.05;;;;;;;-146.64;100.00;40091.00;5052724;28;20049;-75
2021/12/04 09:22:29;;;;;;;94.95;30.92;;;;;;;-146.64;100.00;40074.63;5057514;28;20064;-75
2021/12/04 09:24:58;;;;;;;90.60;27.65;;;;;;;-146.64;100.00;40070.53;5072522;28;20052;-75
2021/12/04 09:59:13;;;;;;;103.50;30.08;;;;;;;-146.64;100.00;40054.16;5066686;28;20171;-75
2021/12/04 10:00:35;;;;;;;118.45;31.00;;;;;;;-146.64;100.00;39910.88;5087040;28;20067;-75
2021/12/04 10:03:17;;;;;;;116.38;30.45;;;;;;;-146.64;100.00;39923.16;5061137;28;20103;-75
2021/12/04 10:06:06;;;;;;;131.63;31.90;;;;;;;-146.64;100.00;39923.16;5053166;28;20437;-75
2021/12/04 10:17:06;;;;;;;116.50;29.40;;;;;;;-146.64;100.00;39919.06;5065856;28;20407;-76
2021/12/04 10:19:44;;;;;;;116.63;28.92;;;;;;;-146.64;100.00;39861.75;5066016;28;20391;-75
2021/12/04 10:33:39;;;;;;;98.93;25.92;;;;;;;-146.64;100.00;39882.22;5060179;28;20055;-74
2021/12/04 10:36:04;;;;;;;78.18;25.08;;;;;;;-146.64;100.00;39919.06;5049241;28;20059;-74
2021/12/04 10:38:40;;;;;;;81.85;27.45;;;;;;;-146.64;100.00;39898.59;5040587;28;20056;-74
2021/12/04 10:41:06;;;;;;;77.60;27.45;;;;;;;-146.64;100.00;39939.53;5069251;28;20500;-74
2021/12/04 10:43:32;;;;;;;87.88;29.23;;;;;;;-146.64;100.00;39943.63;5067303;28;20055;-75
2021/12/04 10:46:01;;;;;;;92.07;30.38;;;;;;;-146.64;100.00;39931.34;5076053;28;20039;-75
2021/12/04 10:48:30;;;;;;;76.55;27.83;;;;;;;-146.64;100.00;39962.06;5061220;28;20059;-75
2021/12/04 10:53:30;;;;;;;60.65;26.90;;;;;;;-146.64;100.00;39896.56;5071620;28;20020;-75
2021/12/04 11:01:26;;;;;;;65.18;24.25;;;;;;;-146.64;100.00;39917.03;5073379;28;20052;-75
2021/12/04 11:24:27;;;;;;;41.15;20.83;;;;;;;-146.64;100.00;39912.94;5058296;28;20056;-75
2021/12/04 11:27:18;;;;;;;38.75;20.45;;;;;;;-146.64;100.00;39902.69;5060606;28;20119;-75
2021/12/04 11:43:16;;;;;;;48.95;22.98;;;;;;;-146.64;100.00;39919.06;5079561;28;20032;-75
2021/12/04 11:48:37;;;;;;;63.88;28.50;;;;;;;-146.64;100.00;39955.91;5075937;28;20371;-75
2021/12/04 11:51:05;;;;;;;70.03;29.45;;;;;;;-146.64;100.00;39939.53;5063849;28;20027;-76
2021/12/04 11:53:32;;;;;;;76.63;31.48;;;;;;;-146.64;100.00;39951.81;5065360;28;20318;-75
2021/12/04 11:55:58;;;;;;;69.65;30.90;;;;;;;-146.64;100.00;39976.38;5050539;28;20017;-76
2021/12/04 11:58:26;;;;;;;80.68;33.05;;;;;;;-146.64;100.00;39968.19;5062764;28;20097;-74
2021/12/04 12:00:58;;;;;;;64.70;31.00;;;;;;;-146.64;100.00;39976.38;5041990;28;20039;-75
2021/12/04 12:03:28;;;;;;;71.30;30.77;;;;;;;-146.64;100.00;39960.00;5058707;28;20032;-77
2021/12/04 12:05:57;;;;;;;79.45;31.92;;;;;;;-146.64;100.00;39953.88;5044164;28;20034;-75
2021/12/04 12:08:35;;;;;;;69.40;30.05;;;;;;;-146.64;100.00;39914.97;5082357;28;20078;-75
2021/12/04 12:11:10;;;;;;;83.40;31.85;;;;;;;-146.64;100.00;40009.13;5070925;28;20037;-75
2021/12/04 12:13:40;;;;;;;82.65;31.50;;;;;;;-146.64;100.00;40019.38;5081630;28;20031;-75
2021/12/04 12:16:13;;;;;;;86.18;34.80;;;;;;;-146.64;100.00;40058.25;5060621;28;20151;-75
2021/12/04 12:18:57;;;;;;;85.88;34.85;;;;;;;-146.64;100.00;40062.34;5064651;28;20019;-75
2021/12/04 12:21:29;;;;;;;67.85;32.00;;;;;;;-146.64;100.00;40041.88;5056514;28;20510;-75
2021/12/04 12:27:06;;;;;;;62.95;29.98;;;;;;;-146.64;100.00;40064.41;5066401;28;20044;-76
2021/12/04 12:38:51;;;;;;;64.57;28.90;;;;;;;-146.64;100.00;40009.13;5065720;28;20446;-75
2021/12/04 12:41:20;;;;;;;50.03;25.75;;;;;;;-146.64;100.00;40023.47;5058898;28;20060;-76
2021/12/04 12:43:59;;;;;;;51.05;25.05;;;;;;;-146.64;100.00;40025.50;5060989;28;20028;-75
2021/12/04 12:46:39;;;;;;;47.67;24.33;;;;;;;-146.64;100.00;39976.38;5054194;28;20357;-75
2021/12/04 12:49:21;;;;;;;46.70;24.13;;;;;;;-146.64;100.00;40005.03;5070713;28;20547;-75
2021/12/04 12:51:52;;;;;;;41.67;21.50;;;;;;;-146.64;100.00;40025.50;5063400;28;20518;-76
2021/12/04 12:54:43;;;;;;;43.25;19.90;;;;;;;-146.64;100.00;40005.03;5057787;28;20108;-75
2021/12/04 12:57:10;;;;;;;41.45;18.98;;;;;;;-146.64;100.00;40021.41;5067910;28;20039;-75
2021/12/04 12:59:45;;;;;;;29.77;15.70;;;;;;;-146.64;100.00;40025.50;5066586;28;20032;-75
2021/12/04 13:13:45;;;;;;;27.60;13.38;;;;;;;-146.64;100.00;40013.22;5071156;28;20058;-75
2021/12/04 13:16:21;;;;;;;29.25;14.18;;;;;;;-146.64;100.00;40017.31;5048174;28;20036;-75
2021/12/04 13:18:56;;;;;;;27.10;13.45;;;;;;;-146.64;100.00;40025.50;5057414;28;20028;-76
2021/12/04 13:21:24;;;;;;;28.90;13.18;;;;;;;-146.64;100.00;40005.03;5054478;28;20094;-76
2021/12/04 13:23:52;;;;;;;28.38;12.48;;;;;;;-146.64;100.00;40037.78;5078837;28;20051;-76
2021/12/04 13:26:18;;;;;;;22.88;11.65;;;;;;;-146.64;100.00;40015.28;5069319;28;20480;-75
2021/12/04 13:28:47;;;;;;;24.77;10.32;;;;;;;-146.64;100.00;40025.50;5048855;28;20036;-76
2021/12/04 13:31:12;;;;;;;20.98;8.95;;;;;;;-146.64;100.00;40017.31;5066014;28;20500;-77
2021/12/04 13:33:41;;;;;;;18.35;7.05;;;;;;;-146.64;100.00;39992.75;5049166;28;20017;-76
2021/12/04 13:36:15;;;;;;;13.02;5.90;;;;;;;-146.64;100.00;39976.38;5046039;28;20036;-76
2021/12/04 13:38:40;;;;;;;10.48;4.15;;;;;;;-146.64;100.00;39931.34;5060961;28;20397;-76
2021/12/04 13:41:06;;;;;;;6.85;4.00;;;;;;;-146.64;100.00;39931.34;5077162;28;20031;-75
2021/12/04 13:43:31;;;;;;;10.35;2.75;;;;;;;-146.64;100.00;39931.34;5069184;28;20028;-76
2021/12/04 13:46:00;;;;;;;7.60;2.97;;;;;;;-146.64;100.00;39914.97;5064028;28;20111;-75
2021/12/04 13:48:27;;;;;;;6.07;2.25;;;;;;;-146.64;100.00;39869.94;5056156;28;20434;-75
2021/12/04 13:50:52;;;;;;;;;;;;;;;-146.64;100.00;39865.84;5049764;28;20033;-75
2021/12/04 13:53:21;;;;;;;7.55;2.20;;;;;;;-146.64;100.00;39861.75;5064856;28;19918;-75
2021/12/04 13:55:56;;;;;;;6.57;1.95;;;;;;;-146.64;100.00;39894.50;5059360;28;20029;-75
2021/12/04 13:58:22;;;;;;;6.18;1.63;;;;;;;-146.64;100.00;39890.41;5064433;28;20035;-75
2021/12/04 14:00:48;;;;;;;5.97;1.25;;;;;;;-146.64;100.00;39892.47;5047088;28;20033;-75
2021/12/04 14:03:22;;;;;;;6.35;1.50;;;;;;;-146.64;100.00;39878.13;5058757;28;20025;-75